createdAt,value
2019-03-10T00:03:15.123Z,9.93
2019-03-10T00:08:08.482Z,10.40
2019-03-10T00:13:01.871Z,9.27
2019-03-10T00:17:55.566Z,8.83
2019-03-10T00:22:49.254Z,13.23
2019-03-10T00:27:42.639Z,9.67
2019-03-10T00:32:36.296Z,10.27
2019-03-10T00:37:29.731Z,11.80
2019-03-10T00:42:43.891Z,11.73
2019-03-10T00:48:02.980Z,10.73
2019-03-10T00:52:59.643Z,9.80
2019-03-10T00:57:53.009Z,8.67
2019-03-10T01:02:46.667Z,11.17
2019-03-10T01:07:40.036Z,12.43
2019-03-10T01:12:33.735Z,11.00
2019-03-10T01:17:27.102Z,13.57
2019-03-10T01:22:20.632Z,9.37
2019-03-10T01:27:14.165Z,13.13
2019-03-10T01:32:12.079Z,8.40
2019-03-10T01:37:05.610Z,11.87
2019-03-10T01:41:59.230Z,11.67
2019-03-10T01:47:12.144Z,15.17
2019-03-10T01:52:38.261Z,12.97
2019-03-10T01:58:04.335Z,14.33
2019-03-10T02:03:29.838Z,9.47
2019-03-10T02:08:55.572Z,11.77
2019-03-10T02:14:21.614Z,15.13
2019-03-10T02:19:47.482Z,12.37
2019-03-10T02:25:13.776Z,10.80
2019-03-10T02:30:39.322Z,12.03
2019-03-10T02:36:06.007Z,12.73
2019-03-10T02:41:31.975Z,11.30
2019-03-10T02:46:58.566Z,12.00
2019-03-10T02:52:24.518Z,11.70
2019-03-10T02:57:50.650Z,11.17
2019-03-10T03:03:16.521Z,11.47
2019-03-10T03:08:42.102Z,13.60
2019-03-10T03:14:07.584Z,10.10
2019-03-10T03:19:33.639Z,12.33
2019-03-10T03:24:59.153Z,8.70
2019-03-10T03:30:25.869Z,11.13
2019-03-10T03:36:05.385Z,7.37
2019-03-10T03:41:32.890Z,9.87
2019-03-10T03:46:58.819Z,6.70
2019-03-10T03:52:24.788Z,10.13
2019-03-10T03:57:50.866Z,7.73
2019-03-10T04:03:16.427Z,9.10
2019-03-10T04:08:41.984Z,7.13
2019-03-10T04:14:08.178Z,6.23
2019-03-10T04:19:34.093Z,9.40
2019-03-10T04:24:59.859Z,7.07
2019-03-10T04:30:25.992Z,6.77
2019-03-10T04:35:52.314Z,7.43
2019-03-10T04:41:18.420Z,7.20
2019-03-10T04:46:44.484Z,7.17
2019-03-10T04:52:10.074Z,8.27
2019-03-10T04:57:36.467Z,11.30
2019-03-10T05:03:01.988Z,4.20
2019-03-10T05:08:27.540Z,8.07
2019-03-10T05:13:53.531Z,6.63
2019-03-10T05:19:19.842Z,6.90
2019-03-10T05:24:45.799Z,8.23
2019-03-10T05:30:11.302Z,7.47
2019-03-10T05:35:37.000Z,7.50
2019-03-10T05:41:02.837Z,10.17
2019-03-10T05:46:29.085Z,7.57
2019-03-10T05:51:54.891Z,7.67
2019-03-10T05:57:20.751Z,8.57
2019-03-10T06:02:46.147Z,7.57
2019-03-10T06:08:12.152Z,10.13
2019-03-10T06:13:38.254Z,10.73
2019-03-10T06:19:03.735Z,7.47
2019-03-10T06:24:29.516Z,9.57
2019-03-10T06:29:55.541Z,11.83
2019-03-10T06:35:22.148Z,7.00
2019-03-10T06:40:48.152Z,11.27
2019-03-10T06:46:14.203Z,13.10
2019-03-10T06:51:40.556Z,12.77
2019-03-10T06:57:06.933Z,10.97
2019-03-10T07:02:32.502Z,7.83
2019-03-10T07:07:58.314Z,7.90
2019-03-10T07:13:24.271Z,6.90
2019-03-10T07:18:49.851Z,7.17
2019-03-10T07:24:15.753Z,8.77
2019-03-10T07:29:46.082Z,10.27
2019-03-10T07:35:30.037Z,9.83
2019-03-10T07:41:09.525Z,8.07
2019-03-10T07:47:00.639Z,6.20
2019-03-10T07:52:52.322Z,8.83
2019-03-10T07:58:43.220Z,6.87
2019-03-10T08:04:32.570Z,6.63
2019-03-10T08:10:17.296Z,11.03
2019-03-10T08:16:03.921Z,5.73
2019-03-10T08:22:04.448Z,8.47
2019-03-10T08:27:39.908Z,7.80
2019-03-10T08:33:13.589Z,8.07
2019-03-10T08:39:04.704Z,7.10
2019-03-10T08:44:34.766Z,8.67
2019-03-10T08:50:22.818Z,6.93
2019-03-10T08:56:17.145Z,11.23
2019-03-10T09:01:50.049Z,12.33
2019-03-10T09:07:32.193Z,7.30
2019-03-10T09:13:29.030Z,7.90
2019-03-10T09:19:16.332Z,10.77
2019-03-10T09:25:17.067Z,9.10
2019-03-10T09:31:08.332Z,7.00
2019-03-10T09:36:58.205Z,5.63
2019-03-10T09:42:45.465Z,6.47
2019-03-10T09:48:27.211Z,7.47
2019-03-10T09:54:22.801Z,6.97
2019-03-10T10:00:17.191Z,6.53
2019-03-10T10:05:57.247Z,4.10
2019-03-10T10:11:29.079Z,4.47
2019-03-10T10:17:09.838Z,4.97
2019-03-10T10:22:54.508Z,4.77
2019-03-10T10:28:42.722Z,4.93
2019-03-10T10:34:13.387Z,3.40
2019-03-10T10:39:58.818Z,4.00
2019-03-10T10:45:42.812Z,3.43
2019-03-10T10:51:24.305Z,3.87
2019-03-10T10:57:27.552Z,3.90
2019-03-10T11:03:15.888Z,2.77
2019-03-10T11:08:56.870Z,5.43
2019-03-10T11:14:41.132Z,3.27
2019-03-10T11:20:16.534Z,2.57
2019-03-10T11:26:08.672Z,2.13
2019-03-10T11:31:48.687Z,3.00
2019-03-10T11:37:36.821Z,2.90
2019-03-10T11:43:22.846Z,2.50
2019-03-10T11:49:09.116Z,1.97
2019-03-10T11:54:54.099Z,1.83
2019-03-10T12:00:47.351Z,3.87
2019-03-10T12:06:41.510Z,1.77
2019-03-10T12:12:07.627Z,2.17
2019-03-10T12:17:33.193Z,3.63
2019-03-10T12:22:59.338Z,2.70
2019-03-10T12:28:24.634Z,2.47
2019-03-10T12:33:50.278Z,3.47
2019-03-10T12:39:17.296Z,1.73
2019-03-10T12:44:42.245Z,2.70
2019-03-10T12:50:08.082Z,2.60
2019-03-10T12:55:33.983Z,2.70
2019-03-10T13:01:06.045Z,1.87
2019-03-10T13:06:26.949Z,3.70
2019-03-10T13:11:52.850Z,2.07
2019-03-10T13:17:18.805Z,2.00
2019-03-10T13:22:44.574Z,3.33
2019-03-10T13:28:10.602Z,3.00
2019-03-10T13:33:36.810Z,5.07
2019-03-10T13:39:02.577Z,6.37
2019-03-10T13:44:28.433Z,5.87
2019-03-10T13:49:55.146Z,3.67
2019-03-10T13:55:20.296Z,8.10
2019-03-10T14:00:46.264Z,2.37
2019-03-10T14:06:12.739Z,4.73
2019-03-10T14:11:39.213Z,4.10
2019-03-10T14:17:04.798Z,3.17
2019-03-10T14:22:30.387Z,4.92
2019-03-10T14:27:55.672Z,6.27
2019-03-10T14:33:21.841Z,5.87
2019-03-10T14:38:48.076Z,6.67
2019-03-10T14:44:14.530Z,7.23
2019-03-10T14:49:40.359Z,3.30
2019-03-10T14:55:06.072Z,5.07
2019-03-10T15:00:14.198Z,3.87
2019-03-10T15:05:07.590Z,8.60
2019-03-10T15:10:01.516Z,2.93
2019-03-10T15:14:54.911Z,4.60
2019-03-10T15:19:48.527Z,4.30
2019-03-10T15:24:42.211Z,3.50
2019-03-10T15:29:35.733Z,4.70
2019-03-10T15:34:29.277Z,2.80
2019-03-10T15:39:22.664Z,3.10
2019-03-10T15:44:16.370Z,5.67
2019-03-10T15:49:10.097Z,8.67
2019-03-10T15:54:05.790Z,3.17
2019-03-10T15:58:57.130Z,4.83
2019-03-10T16:03:50.767Z,6.53
2019-03-10T16:08:44.486Z,5.27
2019-03-10T16:13:38.175Z,7.57
2019-03-10T16:18:31.618Z,10.60
2019-03-10T16:23:25.203Z,11.17
2019-03-10T16:28:18.916Z,20.27
2019-03-10T16:33:12.612Z,15.63
2019-03-10T16:38:06.263Z,14.57
2019-03-10T16:42:59.945Z,10.87
2019-03-10T16:47:53.321Z,11.23
2019-03-10T16:52:47.009Z,7.47
2019-03-10T16:57:40.388Z,8.40
2019-03-10T17:02:34.107Z,7.23
2019-03-10T17:07:27.840Z,5.07
2019-03-10T17:12:21.274Z,9.20
2019-03-10T17:17:14.656Z,6.80
2019-03-10T17:22:08.219Z,8.93
2019-03-10T17:27:01.912Z,6.43
2019-03-10T17:31:55.577Z,7.77
2019-03-10T17:36:49.262Z,9.70
2019-03-10T17:41:43.266Z,5.27
2019-03-10T17:46:36.973Z,4.80
2019-03-10T17:51:30.394Z,4.70
2019-03-10T17:56:24.040Z,3.60
2019-03-10T18:01:17.702Z,5.37
2019-03-10T18:06:11.377Z,5.47
2019-03-10T18:11:05.093Z,6.37
2019-03-10T18:15:58.447Z,4.73
2019-03-10T18:20:52.123Z,3.17
2019-03-10T18:25:45.825Z,4.00
2019-03-10T18:30:39.593Z,5.87
2019-03-10T18:35:33.221Z,4.23
2019-03-10T18:40:26.667Z,3.53
2019-03-10T18:45:19.961Z,5.20
2019-03-10T18:50:14.092Z,4.13
2019-03-10T18:55:08.302Z,4.67
2019-03-10T19:00:01.951Z,4.37
2019-03-10T19:04:55.695Z,5.30
2019-03-10T19:09:49.121Z,4.97
2019-03-10T19:14:42.583Z,5.13
2019-03-10T19:19:36.074Z,4.00
2019-03-10T19:24:30.675Z,5.10
2019-03-10T19:29:24.049Z,3.37
2019-03-10T19:34:17.726Z,5.17
2019-03-10T19:39:11.167Z,5.33
2019-03-10T19:44:04.814Z,3.63
2019-03-10T19:48:58.593Z,4.83
2019-03-10T19:53:52.178Z,4.20
2019-03-10T19:58:45.868Z,7.17
2019-03-10T20:03:39.612Z,2.97
2019-03-10T20:08:32.976Z,3.43
2019-03-10T20:13:26.660Z,3.83
2019-03-10T20:18:20.297Z,5.13
2019-03-10T20:23:13.716Z,4.07
2019-03-10T20:28:09.234Z,5.60
2019-03-10T20:33:00.741Z,4.50
2019-03-10T20:37:54.138Z,5.80
2019-03-10T20:42:47.842Z,3.97
2019-03-10T20:47:41.575Z,4.43
2019-03-10T20:52:35.270Z,5.10
2019-03-10T20:57:28.901Z,6.13
2019-03-10T21:02:22.582Z,3.97
2019-03-10T21:07:16.264Z,4.77
2019-03-10T21:12:09.960Z,3.07
2019-03-10T21:17:03.534Z,5.37
2019-03-10T21:21:57.010Z,4.77
2019-03-10T21:26:50.423Z,3.33
2019-03-10T21:31:43.815Z,5.30
2019-03-10T21:36:37.446Z,2.80
2019-03-10T21:41:31.160Z,8.97
2019-03-10T21:46:24.585Z,7.80
2019-03-10T21:51:19.146Z,8.80
2019-03-10T21:56:11.908Z,7.23
2019-03-10T22:01:05.563Z,8.33
2019-03-10T22:05:59.245Z,6.10
2019-03-10T22:10:52.925Z,9.33
2019-03-10T22:15:46.316Z,7.43
2019-03-10T22:20:39.999Z,10.47
2019-03-10T22:25:33.700Z,12.30
2019-03-10T22:30:27.415Z,6.60
2019-03-10T22:35:21.058Z,6.40
2019-03-10T22:40:14.751Z,8.63
2019-03-10T22:45:08.955Z,8.57
2019-03-10T22:50:03.116Z,6.37
2019-03-10T22:54:55.808Z,10.83
2019-03-10T22:59:49.180Z,10.57
2019-03-10T23:04:42.856Z,7.57
2019-03-10T23:09:36.266Z,8.80
2019-03-10T23:14:29.621Z,8.20
2019-03-10T23:19:22.999Z,8.53
2019-03-10T23:24:16.357Z,10.27
2019-03-10T23:29:09.762Z,7.97
2019-03-10T23:34:03.752Z,6.97
2019-03-10T23:38:57.133Z,8.90
2019-03-10T23:43:50.816Z,8.30
2019-03-10T23:48:44.264Z,7.93
2019-03-10T23:53:37.870Z,6.73
2019-03-10T23:58:31.245Z,9.30
